createdAt,value
2023-01-29T00:00:24.730Z,32.50
2023-01-29T00:01:24.748Z,35.00
2023-01-29T00:02:24.724Z,34.70
2023-01-29T00:03:24.886Z,32.50
2023-01-29T00:04:24.619Z,34.40
2023-01-29T00:05:28.631Z,33.60
2023-01-29T00:06:24.697Z,32.70
2023-01-29T00:07:24.646Z,33.70
2023-01-29T00:08:24.724Z,34.10
2023-01-29T00:09:24.480Z,33.40
2023-01-29T00:10:24.690Z,35.00
2023-01-29T00:11:24.655Z,32.40
2023-01-29T00:12:24.623Z,33.40
2023-01-29T00:13:24.536Z,33.30
2023-01-29T00:14:24.617Z,32.70
2023-01-29T00:15:24.689Z,32.50
2023-01-29T00:16:24.494Z,33.40
2023-01-29T00:17:24.607Z,33.60
2023-01-29T00:18:24.596Z,31.70
2023-01-29T00:19:24.510Z,32.80
2023-01-29T00:20:24.639Z,32.20
2023-01-29T00:21:24.546Z,33.50
2023-01-29T00:22:24.516Z,32.30
2023-01-29T00:23:24.493Z,32.50
2023-01-29T00:24:24.429Z,31.90
2023-01-29T00:25:24.460Z,31.30
2023-01-29T00:26:24.591Z,31.50
2023-01-29T00:27:24.480Z,33.30
2023-01-29T00:28:24.462Z,31.80
2023-01-29T00:29:24.358Z,33.80
2023-01-29T00:30:24.245Z,31.70
2023-01-29T00:31:24.656Z,32.50
2023-01-29T00:32:24.489Z,31.60
2023-01-29T00:33:24.369Z,33.90
2023-01-29T00:34:24.370Z,33.90
2023-01-29T00:35:24.439Z,33.60
2023-01-29T00:36:24.419Z,33.90
2023-01-29T00:37:24.399Z,34.20
2023-01-29T00:38:24.371Z,35.50
2023-01-29T00:39:29.390Z,36.20
2023-01-29T00:40:24.308Z,32.50
2023-01-29T00:41:24.370Z,34.90
2023-01-29T00:42:24.344Z,36.50
2023-01-29T00:43:24.321Z,35.10
2023-01-29T00:44:24.293Z,33.70
2023-01-29T00:45:24.342Z,35.20
2023-01-29T00:46:24.340Z,34.70
2023-01-29T00:47:24.363Z,35.10
2023-01-29T00:48:24.310Z,33.80
2023-01-29T00:49:24.266Z,36.50
2023-01-29T00:50:24.245Z,35.20
2023-01-29T00:51:24.227Z,35.40
2023-01-29T00:52:24.366Z,34.20
2023-01-29T00:53:24.190Z,35.20
2023-01-29T00:54:24.179Z,35.70
2023-01-29T00:55:24.344Z,36.00
2023-01-29T00:56:24.172Z,33.60
2023-01-29T00:57:24.181Z,35.40
2023-01-29T00:58:24.334Z,34.50
2023-01-29T00:59:24.170Z,33.80
2023-01-29T01:00:24.187Z,33.20
2023-01-29T01:01:24.219Z,34.60
2023-01-29T01:02:24.212Z,34.20
2023-01-29T01:03:24.165Z,33.40
2023-01-29T01:04:24.203Z,36.20
2023-01-29T01:05:24.175Z,34.70
2023-01-29T01:06:24.087Z,35.40
2023-01-29T01:07:24.106Z,34.40
2023-01-29T01:08:24.102Z,34.50
2023-01-29T01:09:24.185Z,33.50
2023-01-29T01:10:24.214Z,34.30
2023-01-29T01:11:24.026Z,35.70
2023-01-29T01:12:24.045Z,34.60
2023-01-29T01:13:24.058Z,32.70
2023-01-29T01:14:24.046Z,34.30
2023-01-29T01:15:24.116Z,33.80
2023-01-29T01:16:24.056Z,33.40
2023-01-29T01:17:24.044Z,34.10
2023-01-29T01:18:24.044Z,33.20
2023-01-29T01:19:24.060Z,31.80
2023-01-29T01:20:24.115Z,32.00
2023-01-29T01:21:24.082Z,34.10
2023-01-29T01:22:24.019Z,33.70
2023-01-29T01:23:23.958Z,33.50
2023-01-29T01:24:23.931Z,35.30
2023-01-29T01:25:24.065Z,34.50
2023-01-29T01:26:24.000Z,33.80
2023-01-29T01:27:23.985Z,33.60
2023-01-29T01:28:24.055Z,36.30
2023-01-29T01:29:23.778Z,36.70
2023-01-29T01:30:23.962Z,34.40
2023-01-29T01:31:23.917Z,34.70
2023-01-29T01:32:24.025Z,35.00
2023-01-29T01:33:23.900Z,34.60
2023-01-29T01:34:23.934Z,36.60
2023-01-29T01:35:23.943Z,35.50
2023-01-29T01:36:23.885Z,35.50
2023-01-29T01:37:23.908Z,36.60
2023-01-29T01:38:23.837Z,36.50
2023-01-29T01:39:23.865Z,35.50
2023-01-29T01:40:23.946Z,35.30
2023-01-29T01:41:23.936Z,35.60
2023-01-29T01:42:23.939Z,37.40
2023-01-29T01:43:23.845Z,36.60
2023-01-29T01:44:23.829Z,37.10
2023-01-29T01:45:23.825Z,37.70
2023-01-29T01:46:23.818Z,39.80
2023-01-29T01:47:23.595Z,37.70
2023-01-29T01:48:23.615Z,37.50
2023-01-29T01:49:23.598Z,38.90
2023-01-29T01:50:23.594Z,38.50
2023-01-29T01:51:23.571Z,37.90
2023-01-29T01:52:23.708Z,36.80
2023-01-29T01:53:23.844Z,38.80
2023-01-29T01:54:23.726Z,39.40
2023-01-29T01:55:23.686Z,39.20
2023-01-29T01:56:23.666Z,37.20
2023-01-29T01:57:23.717Z,39.60
2023-01-29T01:58:23.699Z,38.50
2023-01-29T01:59:23.774Z,39.70
2023-01-29T02:00:23.699Z,37.10
2023-01-29T02:01:25.698Z,38.40
2023-01-29T02:02:23.695Z,39.20
2023-01-29T02:03:23.596Z,39.50
2023-01-29T02:04:23.697Z,38.00
2023-01-29T02:05:23.627Z,37.40
2023-01-29T02:06:23.642Z,38.00
2023-01-29T02:07:23.643Z,37.60
2023-01-29T02:08:23.499Z,37.70
2023-01-29T02:09:23.649Z,40.90
2023-01-29T02:10:23.491Z,39.70
2023-01-29T02:11:23.475Z,38.40
2023-01-29T02:12:23.480Z,39.20
2023-01-29T02:13:23.577Z,39.10
2023-01-29T02:14:23.547Z,39.30
2023-01-29T02:15:23.521Z,37.80
2023-01-29T02:16:23.512Z,39.50
2023-01-29T02:17:23.629Z,38.40
2023-01-29T02:18:23.480Z,39.10
2023-01-29T02:19:23.465Z,38.00
2023-01-29T02:20:23.619Z,38.00
2023-01-29T02:21:23.505Z,38.30
2023-01-29T02:22:23.490Z,37.80
2023-01-29T02:23:23.466Z,38.00
2023-01-29T02:24:23.277Z,37.10
2023-01-29T02:25:23.523Z,39.00
2023-01-29T02:26:23.490Z,38.60
2023-01-29T02:27:23.463Z,38.20
2023-01-29T02:28:23.432Z,37.20
2023-01-29T02:29:23.323Z,39.00
2023-01-29T02:30:23.451Z,38.90
2023-01-29T02:31:23.536Z,38.10
2023-01-29T02:32:23.358Z,37.50
2023-01-29T02:33:23.356Z,39.70
2023-01-29T02:34:23.369Z,39.40
2023-01-29T02:35:23.181Z,39.10
2023-01-29T02:36:23.331Z,38.90
2023-01-29T02:37:23.301Z,41.10
2023-01-29T02:38:23.363Z,38.90
2023-01-29T02:39:23.346Z,40.20
2023-01-29T02:40:23.414Z,36.70
2023-01-29T02:41:23.311Z,38.80
2023-01-29T02:42:23.376Z,39.30
2023-01-29T02:43:23.275Z,38.00
2023-01-29T02:44:23.286Z,40.00
2023-01-29T02:45:23.243Z,40.50
2023-01-29T02:46:23.373Z,42.10
2023-01-29T02:47:23.267Z,40.20
2023-01-29T02:48:23.223Z,39.00
2023-01-29T02:49:23.028Z,42.70
2023-01-29T02:50:23.252Z,44.80
2023-01-29T02:51:23.210Z,39.50
2023-01-29T02:52:23.248Z,41.00
2023-01-29T02:53:23.085Z,41.50
2023-01-29T02:54:22.992Z,40.10
2023-01-29T02:55:23.068Z,39.70
2023-01-29T02:56:23.072Z,40.40
2023-01-29T02:57:23.146Z,42.10
2023-01-29T02:58:23.106Z,40.30
2023-01-29T02:59:22.967Z,41.20
2023-01-29T03:00:23.049Z,39.20
2023-01-29T03:01:23.161Z,40.50
2023-01-29T03:02:23.111Z,39.90
2023-01-29T03:03:23.159Z,41.60
2023-01-29T03:04:23.151Z,40.50
2023-01-29T03:05:23.145Z,39.20
2023-01-29T03:06:23.047Z,42.00
2023-01-29T03:07:23.020Z,40.70
2023-01-29T03:08:23.008Z,40.90
2023-01-29T03:09:23.069Z,43.40
2023-01-29T03:10:23.059Z,39.50
2023-01-29T03:11:23.027Z,42.70
2023-01-29T03:12:23.000Z,43.00
2023-01-29T03:13:22.986Z,39.10
2023-01-29T03:14:23.058Z,41.80
2023-01-29T03:15:23.040Z,42.00
2023-01-29T03:16:22.990Z,41.20
2023-01-29T03:17:22.944Z,41.30
2023-01-29T03:18:22.929Z,41.20
2023-01-29T03:19:22.915Z,41.10
2023-01-29T03:20:22.977Z,41.30
2023-01-29T03:21:22.872Z,41.80
2023-01-29T03:22:22.864Z,40.60
2023-01-29T03:23:22.748Z,41.30
2023-01-29T03:24:22.890Z,41.40
2023-01-29T03:25:22.976Z,42.40
2023-01-29T03:26:22.873Z,44.30
2023-01-29T03:27:22.859Z,43.00
2023-01-29T03:28:22.851Z,43.80
2023-01-29T03:29:22.827Z,44.00
2023-01-29T03:30:22.890Z,43.90
2023-01-29T03:31:22.872Z,42.40
2023-01-29T03:32:22.840Z,43.00
2023-01-29T03:33:22.822Z,48.00
2023-01-29T03:34:22.927Z,45.70
2023-01-29T03:35:22.774Z,45.70
2023-01-29T03:36:22.868Z,46.20
2023-01-29T03:37:22.843Z,43.50
2023-01-29T03:38:22.804Z,45.90
2023-01-29T03:39:22.762Z,43.30
2023-01-29T03:40:22.750Z,44.80
2023-01-29T03:41:22.723Z,46.50
2023-01-29T03:42:22.851Z,45.70
2023-01-29T03:43:22.678Z,43.00
2023-01-29T03:44:22.658Z,44.80
2023-01-29T03:45:22.688Z,45.00
2023-01-29T03:46:22.681Z,43.20
2023-01-29T03:47:22.827Z,45.70
2023-01-29T03:48:22.695Z,43.00
2023-01-29T03:49:22.589Z,42.30
2023-01-29T03:50:22.581Z,43.20
2023-01-29T03:51:22.646Z,44.00
2023-01-29T03:52:22.593Z,41.90
2023-01-29T03:53:22.555Z,43.60
2023-01-29T03:54:22.570Z,46.70
2023-01-29T03:55:22.544Z,45.00
2023-01-29T03:56:22.520Z,43.80
2023-01-29T03:57:22.605Z,44.60
2023-01-29T03:58:22.494Z,46.10
2023-01-29T03:59:22.591Z,44.40
2023-01-29T04:00:22.719Z,47.40
2023-01-29T04:01:22.612Z,43.40
2023-01-29T04:02:22.566Z,44.10
2023-01-29T04:03:22.634Z,45.10
2023-01-29T04:04:22.662Z,45.50
2023-01-29T04:05:22.560Z,46.00
2023-01-29T04:06:22.548Z,45.60
2023-01-29T04:07:22.629Z,45.50
2023-01-29T04:08:22.619Z,45.90
2023-01-29T04:09:22.423Z,46.30
2023-01-29T04:10:22.427Z,44.90
2023-01-29T04:11:22.406Z,44.60
2023-01-29T04:12:22.392Z,45.70
2023-01-29T04:13:22.454Z,44.20
2023-01-29T04:14:22.551Z,42.80
2023-01-29T04:15:22.456Z,46.00
2023-01-29T04:16:22.492Z,43.70
2023-01-29T04:17:22.450Z,43.60
2023-01-29T04:18:22.516Z,44.10
2023-01-29T04:19:22.426Z,43.80
2023-01-29T04:20:22.498Z,42.20
2023-01-29T04:21:22.407Z,43.30
2023-01-29T04:22:22.398Z,43.60
2023-01-29T04:23:22.281Z,45.50
2023-01-29T04:24:22.389Z,43.90
2023-01-29T04:25:22.448Z,42.20
2023-01-29T04:26:22.355Z,43.60
2023-01-29T04:27:22.321Z,43.30
2023-01-29T04:28:22.385Z,41.90
2023-01-29T04:29:22.433Z,42.20
2023-01-29T04:30:22.229Z,44.30
2023-01-29T04:31:22.393Z,46.40
2023-01-29T04:32:22.386Z,44.40
2023-01-29T04:33:22.289Z,41.50
2023-01-29T04:34:22.440Z,43.40
2023-01-29T04:35:22.352Z,42.30
2023-01-29T04:36:22.509Z,44.20
2023-01-29T04:37:22.286Z,43.60
2023-01-29T04:38:22.304Z,44.10
2023-01-29T04:39:22.266Z,43.40
2023-01-29T04:40:22.354Z,44.50
2023-01-29T04:41:22.257Z,43.90
2023-01-29T04:42:22.239Z,42.20
2023-01-29T04:43:22.235Z,45.30
2023-01-29T04:44:22.477Z,41.10
2023-01-29T04:45:22.394Z,42.60
2023-01-29T04:46:22.315Z,42.90
2023-01-29T04:47:22.316Z,43.30
2023-01-29T04:48:22.204Z,42.40
2023-01-29T04:49:22.190Z,41.70
2023-01-29T04:50:22.158Z,42.20
2023-01-29T04:51:22.194Z,45.80
2023-01-29T04:52:22.117Z,43.60
2023-01-29T04:53:22.120Z,42.60
2023-01-29T04:54:22.088Z,47.00
2023-01-29T04:55:22.087Z,43.90
2023-01-29T04:56:22.077Z,45.90
2023-01-29T04:57:22.079Z,44.00
2023-01-29T04:58:22.120Z,44.60
2023-01-29T04:59:22.093Z,46.30
2023-01-29T05:00:22.049Z,46.80
2023-01-29T05:01:22.029Z,45.40
2023-01-29T05:02:22.055Z,47.50
2023-01-29T05:03:22.087Z,45.30
2023-01-29T05:04:21.949Z,45.60
2023-01-29T05:05:22.029Z,46.60
2023-01-29T05:06:22.029Z,41.30
2023-01-29T05:07:22.016Z,44.70
2023-01-29T05:08:22.100Z,43.60
2023-01-29T05:09:21.945Z,49.00
2023-01-29T05:10:21.942Z,46.00
2023-01-29T05:11:21.939Z,45.80
2023-01-29T05:12:21.932Z,45.60
2023-01-29T05:13:21.929Z,44.90
2023-01-29T05:14:21.918Z,46.00
2023-01-29T05:15:22.005Z,45.00
2023-01-29T05:16:21.953Z,43.60
2023-01-29T05:17:21.861Z,45.10
2023-01-29T05:18:21.856Z,45.90
2023-01-29T05:19:21.942Z,44.70
2023-01-29T05:20:21.847Z,44.10
2023-01-29T05:21:21.859Z,46.20
2023-01-29T05:22:21.873Z,46.30
2023-01-29T05:23:21.940Z,44.60
2023-01-29T05:24:22.046Z,44.30
2023-01-29T05:25:21.794Z,45.00
2023-01-29T05:26:21.814Z,45.50
2023-01-29T05:27:21.823Z,45.90
2023-01-29T05:28:21.822Z,46.60
2023-01-29T05:29:21.906Z,44.80
2023-01-29T05:30:21.807Z,42.10
2023-01-29T05:31:21.864Z,43.40
2023-01-29T05:32:21.744Z,43.40
2023-01-29T05:33:21.727Z,43.80
2023-01-29T05:34:21.831Z,42.30
2023-01-29T05:35:21.568Z,43.10
2023-01-29T05:36:21.711Z,42.60
2023-01-29T05:37:21.695Z,44.30
2023-01-29T05:38:21.696Z,42.70
2023-01-29T05:39:21.760Z,45.80
2023-01-29T05:40:21.775Z,45.20
2023-01-29T05:41:21.462Z,42.30
2023-01-29T05:42:21.655Z,45.20
2023-01-29T05:43:21.651Z,46.10
2023-01-29T05:44:21.639Z,43.90
2023-01-29T05:45:21.641Z,44.40
2023-01-29T05:46:21.766Z,46.10
2023-01-29T05:47:21.618Z,45.20
2023-01-29T05:48:21.607Z,46.90
2023-01-29T05:49:21.615Z,45.80
2023-01-29T05:50:21.593Z,47.70
2023-01-29T05:51:21.585Z,45.90
2023-01-29T05:52:21.669Z,45.80
2023-01-29T05:53:21.618Z,46.40
2023-01-29T05:54:21.534Z,45.50
2023-01-29T05:55:21.544Z,45.50
2023-01-29T05:56:21.552Z,48.10
2023-01-29T05:57:21.554Z,47.50
2023-01-29T05:58:21.630Z,47.30
2023-01-29T05:59:21.528Z,48.10
2023-01-29T06:00:21.502Z,47.10
2023-01-29T06:01:21.517Z,44.80
2023-01-29T06:02:21.589Z,48.60
2023-01-29T06:03:21.441Z,46.70
2023-01-29T06:04:21.555Z,47.50
2023-01-29T06:05:21.435Z,47.40
2023-01-29T06:06:21.556Z,47.40
2023-01-29T06:07:21.447Z,51.40
2023-01-29T06:08:21.396Z,49.30
2023-01-29T06:09:21.191Z,49.10
2023-01-29T06:10:21.380Z,46.20
2023-01-29T06:11:21.407Z,48.90
2023-01-29T06:12:21.361Z,48.90
2023-01-29T06:13:23.556Z,48.70
2023-01-29T06:14:21.315Z,47.50
2023-01-29T06:15:21.308Z,47.90
2023-01-29T06:16:21.388Z,46.70
2023-01-29T06:17:21.177Z,50.20
2023-01-29T06:18:21.446Z,50.80
2023-01-29T06:19:21.218Z,49.60
2023-01-29T06:20:21.267Z,49.60
2023-01-29T06:21:21.249Z,50.20
2023-01-29T06:22:21.360Z,47.50
2023-01-29T06:23:21.225Z,51.20
2023-01-29T06:24:21.249Z,49.80
2023-01-29T06:25:21.315Z,50.10
2023-01-29T06:26:21.196Z,50.60
2023-01-29T06:27:21.307Z,50.90
2023-01-29T06:28:21.176Z,52.20
2023-01-29T06:29:21.189Z,51.50
2023-01-29T06:30:21.200Z,50.60
2023-01-29T06:31:36.662Z,49.30
2023-01-29T06:32:21.311Z,50.10
2023-01-29T06:33:21.202Z,48.30
2023-01-29T06:34:21.200Z,48.40
2023-01-29T06:35:21.119Z,48.20
2023-01-29T06:36:21.124Z,50.00
2023-01-29T06:37:21.128Z,49.20
2023-01-29T06:38:21.041Z,49.50
2023-01-29T06:39:21.196Z,49.30
2023-01-29T06:40:21.029Z,47.60
2023-01-29T06:41:20.891Z,51.30
2023-01-29T06:42:21.120Z,48.60
2023-01-29T06:43:21.041Z,47.20
2023-01-29T06:44:20.977Z,48.60
2023-01-29T06:45:21.127Z,48.50
2023-01-29T06:46:20.999Z,47.10
2023-01-29T06:47:20.970Z,47.90
2023-01-29T06:48:20.955Z,49.90
2023-01-29T06:49:21.022Z,50.70
2023-01-29T06:50:21.023Z,47.00
2023-01-29T06:51:20.944Z,48.90
2023-01-29T06:52:20.749Z,50.60
2023-01-29T06:53:20.862Z,49.20
2023-01-29T06:54:20.766Z,49.30
2023-01-29T06:55:21.017Z,48.80
2023-01-29T06:56:20.859Z,50.20
2023-01-29T06:57:20.946Z,49.40
2023-01-29T06:58:20.926Z,50.20
2023-01-29T06:59:20.932Z,47.30
2023-01-29T07:00:20.914Z,46.50
2023-01-29T07:01:36.876Z,48.10
2023-01-29T07:02:20.889Z,50.30
2023-01-29T07:03:20.832Z,50.30
2023-01-29T07:04:20.832Z,49.20
2023-01-29T07:05:20.815Z,46.90
2023-01-29T07:06:20.802Z,45.40
2023-01-29T07:07:20.860Z,47.70
2023-01-29T07:08:20.635Z,47.50
2023-01-29T07:09:20.873Z,47.00
2023-01-29T07:10:20.783Z,45.80
2023-01-29T07:11:20.864Z,50.30
2023-01-29T07:12:20.854Z,48.40
2023-01-29T07:13:20.771Z,49.40
2023-01-29T07:14:20.786Z,47.50
2023-01-29T07:15:20.858Z,48.50
2023-01-29T07:16:20.633Z,46.70
2023-01-29T07:17:20.610Z,48.30
2023-01-29T07:18:20.526Z,48.40
2023-01-29T07:19:20.616Z,48.50
2023-01-29T07:20:20.517Z,45.50
2023-01-29T07:21:20.708Z,49.00
2023-01-29T07:22:20.785Z,48.90
2023-01-29T07:23:20.694Z,50.30
2023-01-29T07:24:20.550Z,49.50
2023-01-29T07:25:20.501Z,48.30
2023-01-29T07:26:20.482Z,46.80
2023-01-29T07:27:20.739Z,49.70
2023-01-29T07:28:20.675Z,47.60
2023-01-29T07:29:20.455Z,49.00
2023-01-29T07:30:20.694Z,48.70
2023-01-29T07:31:20.709Z,46.70
2023-01-29T07:32:20.740Z,48.80
2023-01-29T07:33:20.402Z,47.10
2023-01-29T07:34:20.627Z,46.90
2023-01-29T07:35:20.713Z,51.50
2023-01-29T07:36:20.546Z,49.40
2023-01-29T07:37:20.534Z,47.90
2023-01-29T07:38:20.680Z,50.10
2023-01-29T07:39:20.593Z,48.30
2023-01-29T07:40:20.582Z,49.50
2023-01-29T07:41:20.509Z,51.30
2023-01-29T07:42:20.303Z,47.80
2023-01-29T07:43:20.563Z,49.40
2023-01-29T07:44:20.480Z,47.70
2023-01-29T07:45:20.568Z,50.40
2023-01-29T07:46:20.612Z,48.10
2023-01-29T07:47:20.523Z,48.50
2023-01-29T07:48:20.436Z,48.10
2023-01-29T07:49:20.450Z,47.30
2023-01-29T07:50:20.534Z,46.40
2023-01-29T07:51:20.231Z,47.20
2023-01-29T07:52:22.322Z,48.90
2023-01-29T07:53:20.207Z,49.20
2023-01-29T07:54:20.512Z,49.10
2023-01-29T07:55:20.447Z,51.80
2023-01-29T07:56:20.353Z,49.70
2023-01-29T07:57:20.359Z,49.90
2023-01-29T07:58:20.372Z,50.90
2023-01-29T07:59:20.452Z,51.40
2023-01-29T08:00:20.176Z,49.90
2023-01-29T08:01:20.207Z,47.90
2023-01-29T08:02:20.361Z,47.90
2023-01-29T08:03:20.177Z,49.00
2023-01-29T08:04:20.099Z,51.00
2023-01-29T08:05:20.388Z,46.40
2023-01-29T08:06:20.089Z,47.40
2023-01-29T08:07:20.104Z,47.40
2023-01-29T08:08:20.111Z,49.90
2023-01-29T08:09:20.370Z,50.60
2023-01-29T08:10:20.378Z,47.90
2023-01-29T08:11:20.324Z,50.10
2023-01-29T08:12:20.174Z,47.70
2023-01-29T08:13:20.217Z,47.70
2023-01-29T08:14:20.199Z,48.00
2023-01-29T08:15:20.357Z,47.00
2023-01-29T08:16:20.119Z,46.50
2023-01-29T08:17:20.192Z,49.70
2023-01-29T08:18:20.188Z,48.50
2023-01-29T08:19:20.181Z,49.40
2023-01-29T08:20:20.157Z,48.70
2023-01-29T08:21:20.171Z,45.70
2023-01-29T08:22:20.169Z,46.50
2023-01-29T08:23:20.137Z,45.80
2023-01-29T08:24:20.082Z,48.20
2023-01-29T08:25:20.023Z,48.90
2023-01-29T08:26:20.031Z,47.40
2023-01-29T08:27:20.125Z,48.20
2023-01-29T08:28:20.084Z,48.40
2023-01-29T08:29:20.055Z,48.90
2023-01-29T08:30:20.030Z,47.30
2023-01-29T08:31:20.029Z,47.10
2023-01-29T08:32:20.018Z,46.10
2023-01-29T08:33:29.720Z,45.50
2023-01-29T08:34:19.971Z,47.10
2023-01-29T08:35:20.288Z,46.30
2023-01-29T08:36:19.830Z,47.10
2023-01-29T08:37:19.933Z,48.80
2023-01-29T08:38:20.159Z,47.10
2023-01-29T08:39:19.910Z,46.90
2023-01-29T08:40:20.161Z,46.40
2023-01-29T08:41:19.860Z,47.30
2023-01-29T08:42:19.980Z,46.20
2023-01-29T08:43:19.819Z,45.80
2023-01-29T08:44:19.929Z,48.30
2023-01-29T08:45:19.783Z,47.20
2023-01-29T08:46:19.972Z,45.40
2023-01-29T08:47:19.828Z,49.80
2023-01-29T08:48:19.877Z,48.30
2023-01-29T08:49:19.962Z,46.90
2023-01-29T08:50:20.020Z,49.10
2023-01-29T08:51:19.740Z,50.60
2023-01-29T08:52:19.703Z,50.20
2023-01-29T08:53:19.906Z,49.40
2023-01-29T08:54:19.880Z,48.00
2023-01-29T08:55:19.780Z,49.70
2023-01-29T08:56:19.754Z,47.90
2023-01-29T08:57:19.720Z,48.00
2023-01-29T08:58:19.541Z,48.60
2023-01-29T08:59:19.613Z,49.30
2023-01-29T09:00:19.749Z,48.50
2023-01-29T09:01:19.734Z,48.30
2023-01-29T09:02:19.746Z,51.30
2023-01-29T09:03:19.741Z,49.40
2023-01-29T09:04:19.763Z,47.00
2023-01-29T09:05:20.235Z,47.20
2023-01-29T09:06:19.650Z,46.60
2023-01-29T09:07:19.660Z,47.10
2023-01-29T09:08:19.668Z,46.40
2023-01-29T09:09:19.573Z,47.40
2023-01-29T09:10:19.583Z,48.30
2023-01-29T09:11:19.696Z,45.80
2023-01-29T09:12:19.572Z,46.00
2023-01-29T09:13:19.549Z,45.70
2023-01-29T09:14:19.547Z,49.30
2023-01-29T09:15:19.860Z,47.00
2023-01-29T09:16:19.531Z,47.00
2023-01-29T09:17:19.589Z,46.70
2023-01-29T09:18:19.559Z,44.20
2023-01-29T09:19:19.533Z,44.10
2023-01-29T09:20:19.510Z,46.60
2023-01-29T09:21:19.494Z,45.90
2023-01-29T09:22:19.497Z,43.30
2023-01-29T09:23:19.281Z,43.00
2023-01-29T09:24:19.459Z,44.10
2023-01-29T09:25:19.690Z,45.30
2023-01-29T09:26:19.601Z,45.60
2023-01-29T09:27:19.381Z,45.30
2023-01-29T09:28:19.366Z,46.40
2023-01-29T09:29:19.252Z,42.10
2023-01-29T09:30:19.358Z,45.20
2023-01-29T09:31:19.569Z,44.70
2023-01-29T09:32:37.675Z,43.70
2023-01-29T09:33:19.401Z,44.60
2023-01-29T09:34:19.384Z,43.10
2023-01-29T09:35:19.378Z,42.70
2023-01-29T09:36:19.357Z,43.10
2023-01-29T09:37:21.054Z,43.10
2023-01-29T09:38:19.301Z,40.80
2023-01-29T09:39:19.291Z,43.60
2023-01-29T09:40:19.251Z,40.60
2023-01-29T09:41:19.223Z,43.10
2023-01-29T09:42:19.368Z,40.80
2023-01-29T09:43:19.339Z,41.90
2023-01-29T09:44:19.169Z,40.70
2023-01-29T09:45:19.487Z,40.70
2023-01-29T09:46:19.328Z,41.00
2023-01-29T09:47:19.337Z,41.50
2023-01-29T09:48:19.313Z,40.80
2023-01-29T09:49:19.311Z,40.70
2023-01-29T09:50:20.348Z,39.80
2023-01-29T09:51:19.212Z,40.20
2023-01-29T09:52:19.123Z,38.70
2023-01-29T09:53:19.295Z,40.40
2023-01-29T09:54:19.278Z,37.70
2023-01-29T09:55:19.268Z,40.10
2023-01-29T09:56:18.964Z,38.80
2023-01-29T09:57:19.195Z,37.90
2023-01-29T09:58:19.034Z,38.70
2023-01-29T09:59:19.248Z,39.10
2023-01-29T10:00:19.160Z,38.80
2023-01-29T10:01:19.123Z,37.00
2023-01-29T10:02:19.322Z,36.80
2023-01-29T10:03:19.080Z,39.40
2023-01-29T10:04:19.051Z,36.00
2023-01-29T10:05:19.318Z,35.30
2023-01-29T10:06:18.959Z,35.90
2023-01-29T10:07:19.146Z,38.20
2023-01-29T10:08:19.033Z,38.40
2023-01-29T10:09:19.028Z,38.80
2023-01-29T10:10:19.014Z,38.20
2023-01-29T10:11:18.892Z,35.00
2023-01-29T10:12:18.988Z,34.30
2023-01-29T10:13:18.989Z,36.80
2023-01-29T10:14:18.845Z,35.20
2023-01-29T10:15:19.251Z,35.30
2023-01-29T10:16:18.942Z,35.00
2023-01-29T10:17:18.995Z,35.60
2023-01-29T10:18:18.954Z,31.90
2023-01-29T10:19:18.961Z,35.20
2023-01-29T10:20:18.969Z,33.70
2023-01-29T10:21:18.977Z,34.30
2023-01-29T10:22:18.869Z,35.50
2023-01-29T10:23:18.881Z,33.40
2023-01-29T10:24:18.878Z,33.80
2023-01-29T10:25:19.260Z,33.60
2023-01-29T10:26:18.838Z,34.30
2023-01-29T10:27:18.896Z,34.20
2023-01-29T10:28:18.818Z,31.40
2023-01-29T10:29:18.811Z,29.60
2023-01-29T10:30:18.844Z,29.60
2023-01-29T10:31:18.928Z,31.50
2023-01-29T10:32:18.852Z,32.00
2023-01-29T10:33:18.758Z,32.00
2023-01-29T10:34:18.759Z,32.10
2023-01-29T10:35:18.825Z,31.90
2023-01-29T10:36:18.745Z,34.50
2023-01-29T10:37:18.812Z,32.60
2023-01-29T10:38:18.724Z,32.20
2023-01-29T10:39:18.731Z,33.60
2023-01-29T10:40:18.832Z,33.10
2023-01-29T10:41:18.727Z,32.90
2023-01-29T10:42:18.818Z,32.20
2023-01-29T10:43:18.522Z,34.00
2023-01-29T10:44:18.566Z,31.30
2023-01-29T10:45:19.186Z,32.70
2023-01-29T10:46:18.635Z,35.30
2023-01-29T10:47:18.781Z,34.80
2023-01-29T10:48:18.638Z,32.20
2023-01-29T10:49:18.627Z,32.10
2023-01-29T10:50:18.597Z,34.70
2023-01-29T10:51:18.610Z,34.40
2023-01-29T10:52:18.681Z,33.30
2023-01-29T10:53:18.604Z,34.00
2023-01-29T10:54:18.699Z,34.90
2023-01-29T10:55:18.932Z,33.90
2023-01-29T10:56:23.183Z,37.00
2023-01-29T10:57:18.536Z,33.90
2023-01-29T10:58:18.615Z,35.20
2023-01-29T10:59:18.353Z,31.00
2023-01-29T11:00:18.546Z,35.90
2023-01-29T11:01:18.551Z,34.80
2023-01-29T11:02:18.646Z,34.40
2023-01-29T11:03:27.650Z,34.10
2023-01-29T11:04:18.390Z,35.50
2023-01-29T11:05:18.786Z,35.70
2023-01-29T11:06:18.484Z,31.60
2023-01-29T11:07:18.497Z,33.20
2023-01-29T11:08:18.314Z,32.90
2023-01-29T11:09:18.443Z,31.80
2023-01-29T11:10:18.732Z,30.30
2023-01-29T11:11:18.435Z,33.10
2023-01-29T11:12:20.179Z,31.80
2023-01-29T11:13:18.418Z,31.60
2023-01-29T11:14:18.312Z,32.40
2023-01-29T11:15:18.404Z,31.50
2023-01-29T11:16:18.287Z,32.80
2023-01-29T11:17:18.414Z,30.80
2023-01-29T11:18:18.390Z,32.80
2023-01-29T11:19:18.384Z,32.00
2023-01-29T11:20:18.837Z,30.90
2023-01-29T11:21:18.529Z,31.30
2023-01-29T11:22:18.436Z,28.00
2023-01-29T11:23:18.122Z,31.10
2023-01-29T11:24:18.335Z,31.50
2023-01-29T11:25:18.308Z,29.20
2023-01-29T11:26:18.445Z,31.10
2023-01-29T11:27:18.434Z,30.10
2023-01-29T11:28:18.327Z,31.60
2023-01-29T11:29:18.414Z,30.20
2023-01-29T11:30:18.911Z,31.10
2023-01-29T11:31:18.357Z,30.40
2023-01-29T11:32:18.287Z,29.50
2023-01-29T11:33:18.342Z,30.60
2023-01-29T11:34:18.224Z,32.20
2023-01-29T11:35:18.215Z,31.40
2023-01-29T11:36:18.294Z,30.50
2023-01-29T11:37:18.281Z,30.90
2023-01-29T11:38:18.177Z,33.00
2023-01-29T11:39:18.157Z,30.90
2023-01-29T11:40:18.410Z,31.90
2023-01-29T11:41:18.158Z,32.10
2023-01-29T11:42:18.196Z,30.00
2023-01-29T11:43:18.267Z,31.80
2023-01-29T11:44:17.953Z,30.90
2023-01-29T11:45:18.111Z,29.20
2023-01-29T11:46:18.113Z,32.40
2023-01-29T11:47:18.091Z,32.10
2023-01-29T11:48:18.070Z,31.00
2023-01-29T11:49:20.877Z,30.90
2023-01-29T11:50:18.351Z,28.80
2023-01-29T11:51:18.080Z,30.40
2023-01-29T11:52:18.046Z,29.90
2023-01-29T11:53:18.091Z,30.40
2023-01-29T11:54:18.046Z,30.80
2023-01-29T11:55:18.020Z,30.00
2023-01-29T11:56:18.002Z,30.70
2023-01-29T11:57:19.368Z,30.80
2023-01-29T11:58:17.783Z,30.60
2023-01-29T11:59:17.904Z,30.80
2023-01-29T12:00:18.297Z,30.10
2023-01-29T12:01:17.906Z,29.90
2023-01-29T12:02:17.931Z,29.00
2023-01-29T12:03:17.948Z,30.30
2023-01-29T12:04:17.894Z,29.90
2023-01-29T12:05:17.759Z,30.50
2023-01-29T12:06:17.864Z,29.40
2023-01-29T12:07:17.638Z,29.50
2023-01-29T12:08:17.662Z,32.30
2023-01-29T12:09:17.843Z,31.50
2023-01-29T12:10:18.116Z,30.40
2023-01-29T12:11:17.626Z,31.30
2023-01-29T12:12:17.871Z,31.40
2023-01-29T12:13:17.595Z,32.20
2023-01-29T12:14:17.591Z,30.70
2023-01-29T12:15:17.626Z,29.40
2023-01-29T12:16:17.779Z,31.30
2023-01-29T12:17:17.563Z,30.80
2023-01-29T12:18:17.726Z,33.60
2023-01-29T12:19:17.719Z,31.20
2023-01-29T12:20:17.922Z,31.20
2023-01-29T12:21:17.833Z,31.20
2023-01-29T12:22:17.544Z,32.00
2023-01-29T12:23:17.721Z,32.10
2023-01-29T12:24:17.524Z,31.10
2023-01-29T12:25:17.501Z,33.80
2023-01-29T12:26:17.558Z,31.10
2023-01-29T12:27:17.466Z,33.50
2023-01-29T12:28:17.668Z,31.80
2023-01-29T12:29:17.468Z,31.70
2023-01-29T12:30:17.935Z,30.90
2023-01-29T12:31:17.770Z,30.00
2023-01-29T12:32:17.491Z,30.70
2023-01-29T12:33:17.599Z,31.60
2023-01-29T12:34:17.414Z,32.40
2023-01-29T12:35:17.376Z,35.40
2023-01-29T12:36:17.557Z,31.40
2023-01-29T12:37:17.671Z,32.60
2023-01-29T12:38:17.376Z,32.00
2023-01-29T12:39:17.341Z,32.70
2023-01-29T12:40:17.650Z,33.80
2023-01-29T12:41:17.321Z,31.70
2023-01-29T12:42:17.620Z,33.00
2023-01-29T12:43:17.497Z,32.60
2023-01-29T12:44:17.322Z,33.10
2023-01-29T12:45:17.272Z,32.50
2023-01-29T12:46:17.453Z,32.70
2023-01-29T12:47:17.300Z,32.80
2023-01-29T12:48:17.345Z,32.30
2023-01-29T12:49:17.267Z,33.00
2023-01-29T12:50:17.795Z,32.60
2023-01-29T12:51:17.401Z,35.80
2023-01-29T12:52:17.484Z,32.30